Acharacle, United Kingdom
Current Conditions -  °F | °C
As of 2:20 PM on Thursday 30 Oct 2014 (Local Time) from EGPU Reporting Station
Light Rain Light Rain  
Wind Chill: 55°   Ceiling: 700
Heat Index: 55°   Visibility: 3mi
Dew Point: 55°   Wind: 17mph
Humidity: 100%   Direction: 150°SSE
Pressure: 29.77"   Gusts: NA
Location:  56.7°N, 5.57°W
Report Text: EGPU 301420Z 15015KT 5000 -RADZ SCT003 BKN007 BKN017 13/13 Q1008
Loading
Personal Weather Stations






























Interactive Weather Map
Tropical Storm Tracking
New forecast layout! Learn more

10-Day Weather Forecast

Advertisements
Track Severe Weather on mobile